64  °F
Temperature
18  °C
Temperature
14  °C
 Dewpoint
57  °F
  Dewpoint
78  %
 Humidity
  Temperature
5  mph
Wind Speed
4  kts
Wind Speed
8  km/h
Wind Speed
2.2  m/s
Wind Speed
360°
Due North

Wind Speed
Clear
Conditions
Pressure 29.92 (inHG) - 1013.22 (mb)
Visibility 10.0 (mi) - 16.1 (km)

Sky Conditions
KNUQ
Location Moffett Federal Afld 2.5 mi (4.02 km)
Metar :KNUQ 180856Z 36004KT 10SM CLR 18/14 A2992 RMK AO2 SLP133 T01830144 50002 $
Thu 18th July 01:56 am

Nearest Airport
https://www.checkwx.com/weather/KNUQ
  Metar Aviation API Data Provided by https://www.checkwx.com/ Original CSS/SVG/PHP scripts by weather34.com © 2015-2019